createdAt,value
2019-03-08T00:02:17.196Z,60.24
2019-03-08T00:04:43.100Z,60.24
2019-03-08T00:07:09.194Z,60.20
2019-03-08T00:09:35.041Z,60.22
2019-03-08T00:12:00.923Z,60.28
2019-03-08T00:14:27.157Z,60.33
2019-03-08T00:16:53.032Z,60.31
2019-03-08T00:19:18.912Z,60.36
2019-03-08T00:21:44.931Z,60.40
2019-03-08T00:24:10.887Z,60.40
2019-03-08T00:26:36.756Z,60.41
2019-03-08T00:29:03.202Z,60.47
2019-03-08T00:31:29.283Z,60.52
2019-03-08T00:33:55.123Z,60.56
2019-03-08T00:36:21.264Z,60.51
2019-03-08T00:38:47.144Z,60.52
2019-03-08T00:41:12.986Z,60.57
2019-03-08T00:43:38.980Z,60.60
2019-03-08T00:46:04.948Z,60.64
2019-03-08T00:48:30.904Z,60.69
2019-03-08T00:50:57.210Z,60.71
2019-03-08T00:53:23.165Z,60.71
2019-03-08T00:55:49.137Z,60.73
2019-03-08T00:58:15.172Z,60.73
2019-03-08T01:00:41.143Z,60.75
2019-03-08T01:03:07.105Z,60.79
2019-03-08T01:05:33.159Z,60.78
2019-03-08T01:07:59.031Z,60.72
2019-03-08T01:10:25.289Z,60.72
2019-03-08T01:12:51.334Z,60.72
2019-03-08T01:15:17.514Z,60.76
2019-03-08T01:17:43.384Z,60.77
2019-03-08T01:20:10.925Z,60.74
2019-03-08T01:22:36.905Z,60.75
2019-03-08T01:25:04.048Z,60.77
2019-03-08T01:27:30.138Z,60.84
2019-03-08T01:29:56.025Z,60.88
2019-03-08T01:32:22.078Z,60.91
2019-03-08T01:34:48.189Z,60.88
2019-03-08T01:37:14.179Z,60.88
2019-03-08T01:39:40.151Z,60.88
2019-03-08T01:42:06.103Z,60.87
2019-03-08T01:44:33.842Z,60.90
2019-03-08T01:46:59.678Z,60.90
2019-03-08T01:49:25.774Z,60.92
2019-03-08T01:51:51.675Z,60.86
2019-03-08T01:54:17.530Z,60.86
2019-03-08T01:56:43.566Z,60.87
2019-03-08T01:59:09.537Z,60.87
2019-03-08T02:01:35.511Z,60.87
2019-03-08T02:04:01.606Z,60.89
2019-03-08T02:06:27.589Z,60.86
2019-03-08T02:08:53.450Z,60.81
2019-03-08T02:11:19.520Z,60.76
2019-03-08T02:13:45.421Z,60.76
2019-03-08T02:16:11.273Z,60.77
2019-03-08T02:18:37.239Z,60.81
2019-03-08T02:21:07.233Z,60.86
2019-03-08T02:23:30.866Z,60.86
2019-03-08T02:25:56.815Z,60.82
2019-03-08T02:28:22.692Z,60.81
2019-03-08T02:30:48.575Z,60.78
2019-03-08T02:33:14.611Z,60.78
2019-03-08T02:35:40.583Z,60.78
2019-03-08T02:38:06.426Z,60.78
2019-03-08T02:40:33.268Z,60.73
2019-03-08T02:42:59.748Z,60.72
2019-03-08T02:45:25.847Z,60.67
2019-03-08T02:47:52.074Z,60.71
2019-03-08T02:50:18.076Z,60.75
2019-03-08T02:52:44.059Z,60.82
2019-03-08T02:55:10.047Z,60.82
2019-03-08T02:57:35.910Z,60.81
2019-03-08T03:00:03.986Z,60.80
2019-03-08T03:02:30.017Z,60.88
2019-03-08T03:04:55.886Z,60.84
2019-03-08T03:07:21.748Z,60.87
2019-03-08T03:09:47.784Z,60.88
2019-03-08T03:12:13.679Z,60.90
2019-03-08T03:14:39.551Z,60.94
2019-03-08T03:17:05.574Z,60.93
2019-03-08T03:19:31.468Z,60.91
2019-03-08T03:21:57.351Z,60.99
2019-03-08T03:24:23.708Z,61.00
2019-03-08T03:26:49.809Z,61.06
2019-03-08T03:29:15.750Z,61.04
2019-03-08T03:31:41.692Z,60.98
2019-03-08T03:34:07.698Z,60.96
2019-03-08T03:36:33.561Z,60.94
2019-03-08T03:38:59.637Z,60.92
2019-03-08T03:41:25.478Z,60.96
2019-03-08T03:43:51.326Z,61.01
2019-03-08T03:46:17.371Z,61.06
2019-03-08T03:48:43.226Z,61.05
2019-03-08T03:51:09.080Z,61.07
2019-03-08T03:53:35.162Z,61.13
2019-03-08T03:56:01.294Z,61.16
2019-03-08T03:58:27.198Z,61.17
2019-03-08T04:00:53.503Z,61.13
2019-03-08T04:03:19.370Z,61.10
2019-03-08T04:05:45.331Z,61.10
2019-03-08T04:08:11.344Z,61.13
2019-03-08T04:10:37.297Z,61.12
2019-03-08T04:13:03.198Z,61.09
2019-03-08T04:15:29.357Z,61.01
2019-03-08T04:17:55.316Z,61.00
2019-03-08T04:20:21.292Z,60.95
2019-03-08T04:22:47.623Z,60.92
2019-03-08T04:25:13.575Z,60.90
2019-03-08T04:27:39.534Z,60.84
2019-03-08T04:30:07.511Z,60.83
2019-03-08T04:32:33.666Z,60.83
2019-03-08T04:34:59.661Z,60.78
2019-03-08T04:37:25.611Z,60.80
2019-03-08T04:39:51.500Z,60.85
2019-03-08T04:42:17.449Z,60.87
2019-03-08T04:44:43.489Z,60.87
2019-03-08T04:47:09.360Z,60.84
2019-03-08T04:49:35.219Z,60.85
2019-03-08T04:52:01.653Z,60.86
2019-03-08T04:54:27.555Z,60.81
2019-03-08T04:56:53.417Z,60.81
2019-03-08T04:59:19.378Z,60.81
2019-03-08T05:01:45.370Z,60.74
2019-03-08T05:04:11.350Z,60.77
2019-03-08T05:06:37.480Z,60.81
2019-03-08T05:09:04.042Z,60.77
2019-03-08T05:11:30.011Z,60.83
2019-03-08T05:13:56.048Z,60.83
2019-03-08T05:16:21.962Z,60.75
2019-03-08T05:18:47.803Z,60.77
2019-03-08T05:21:13.746Z,60.73
2019-03-08T05:23:39.634Z,60.78
2019-03-08T05:26:05.475Z,60.80
2019-03-08T05:28:31.419Z,60.82
2019-03-08T05:30:57.466Z,60.84
2019-03-08T05:33:23.338Z,60.79
2019-03-08T05:35:49.560Z,60.82
2019-03-08T05:38:15.437Z,60.89
2019-03-08T05:40:41.296Z,60.95
2019-03-08T05:43:07.380Z,60.95
2019-03-08T05:45:33.251Z,60.93
2019-03-08T05:47:59.208Z,60.90
2019-03-08T05:50:25.163Z,60.90
2019-03-08T05:52:51.142Z,60.85
2019-03-08T05:55:17.107Z,60.92
2019-03-08T05:57:43.085Z,60.93
2019-03-08T06:00:10.834Z,60.87
2019-03-08T06:02:36.771Z,60.81
2019-03-08T06:05:03.256Z,60.95
2019-03-08T06:07:29.212Z,60.99
2019-03-08T06:09:55.172Z,60.97
2019-03-08T06:12:21.186Z,60.96
2019-03-08T06:14:47.267Z,60.96
2019-03-08T06:17:13.197Z,60.98
2019-03-08T06:19:39.152Z,61.00
2019-03-08T06:22:04.995Z,60.98
2019-03-08T06:24:31.011Z,61.01
2019-03-08T06:26:57.065Z,61.04
2019-03-08T06:29:23.113Z,61.13
2019-03-08T06:31:48.994Z,61.14
2019-03-08T06:34:14.932Z,61.16
2019-03-08T06:36:40.806Z,61.16
2019-03-08T06:39:06.857Z,61.10
2019-03-08T06:41:32.831Z,61.11
2019-03-08T06:43:58.691Z,61.11
2019-03-08T06:46:24.552Z,61.12
2019-03-08T06:48:50.794Z,61.12
2019-03-08T06:51:16.620Z,61.14
2019-03-08T06:53:42.575Z,61.17
2019-03-08T06:56:08.525Z,61.22
2019-03-08T06:58:39.355Z,61.20
2019-03-08T07:01:06.639Z,61.22
2019-03-08T07:03:32.659Z,61.24
2019-03-08T07:05:58.497Z,61.15
2019-03-08T07:08:24.550Z,61.07
2019-03-08T07:10:51.928Z,61.10
2019-03-08T07:13:17.904Z,61.07
2019-03-08T07:15:43.847Z,61.08
2019-03-08T07:18:12.976Z,61.09
2019-03-08T07:20:41.946Z,61.12
2019-03-08T07:23:27.327Z,61.10
2019-03-08T07:25:54.350Z,61.08
2019-03-08T07:28:23.763Z,61.03
2019-03-08T07:31:09.436Z,61.07
2019-03-08T07:33:40.238Z,61.05
2019-03-08T07:36:26.071Z,61.06
2019-03-08T07:38:59.724Z,61.06
2019-03-08T07:41:30.353Z,61.08
2019-03-08T07:44:04.556Z,61.05
2019-03-08T07:46:32.412Z,61.15
2019-03-08T07:49:06.184Z,61.12
2019-03-08T07:51:36.551Z,61.16
2019-03-08T07:54:10.160Z,61.20
2019-03-08T07:56:40.834Z,61.23
2019-03-08T07:59:08.588Z,61.20
2019-03-08T08:01:36.520Z,61.22
2019-03-08T08:04:06.927Z,61.28
2019-03-08T08:06:37.814Z,61.39
2019-03-08T08:09:06.694Z,61.40
2019-03-08T08:11:51.081Z,61.43
2019-03-08T08:14:27.533Z,61.37
2019-03-08T08:16:55.546Z,61.32
2019-03-08T08:19:26.171Z,61.26
2019-03-08T08:22:00.415Z,61.27
2019-03-08T08:24:39.944Z,61.25
2019-03-08T08:27:08.066Z,61.21
2019-03-08T08:29:41.445Z,61.29
2019-03-08T08:32:12.241Z,61.32
2019-03-08T08:34:42.620Z,61.34
2019-03-08T08:37:13.484Z,61.36
2019-03-08T08:39:47.268Z,61.35
2019-03-08T08:42:24.235Z,61.41
2019-03-08T08:44:57.973Z,61.34
2019-03-08T08:47:31.644Z,61.42
2019-03-08T08:50:14.154Z,61.49
2019-03-08T08:52:47.713Z,61.51
2019-03-08T08:55:18.259Z,61.54
2019-03-08T08:57:46.236Z,61.48
2019-03-08T09:00:15.994Z,61.42
2019-03-08T09:02:46.625Z,61.48
2019-03-08T09:05:20.368Z,61.47
2019-03-08T09:07:50.804Z,61.44
2019-03-08T09:10:34.961Z,61.42
2019-03-08T09:13:08.971Z,61.42
2019-03-08T09:15:37.012Z,61.44
2019-03-08T09:18:04.845Z,61.39
2019-03-08T09:20:32.598Z,61.40
2019-03-08T09:23:15.486Z,61.36
2019-03-08T09:25:43.314Z,61.34
2019-03-08T09:28:11.084Z,61.33
2019-03-08T09:30:39.120Z,61.28
2019-03-08T09:33:24.932Z,61.34
2019-03-08T09:35:58.509Z,61.36
2019-03-08T09:38:32.010Z,61.36
2019-03-08T09:41:02.760Z,61.35
2019-03-08T09:43:42.466Z,61.39
2019-03-08T09:46:16.291Z,61.40
2019-03-08T09:48:49.674Z,61.42
2019-03-08T09:51:17.635Z,61.45
2019-03-08T09:53:54.128Z,61.46
2019-03-08T09:56:25.298Z,61.59
2019-03-08T09:59:11.069Z,61.59
2019-03-08T10:01:50.984Z,61.59
2019-03-08T10:04:18.731Z,61.54
2019-03-08T10:07:01.369Z,61.50
2019-03-08T10:09:29.142Z,61.56
2019-03-08T10:12:13.360Z,61.55
2019-03-08T10:14:57.965Z,61.74
2019-03-08T10:17:28.764Z,61.88
2019-03-08T10:19:59.128Z,61.89
2019-03-08T10:22:26.875Z,61.92
2019-03-08T10:25:03.776Z,61.91
2019-03-08T10:27:38.074Z,61.90
2019-03-08T10:30:01.310Z,62.02
2019-03-08T10:32:45.723Z,62.01
2019-03-08T10:35:23.785Z,62.04
2019-03-08T10:37:49.507Z,62.06
2019-03-08T10:40:33.902Z,62.12
2019-03-08T10:43:07.829Z,62.11
2019-03-08T10:45:36.193Z,62.10
2019-03-08T10:48:20.418Z,62.07
2019-03-08T10:50:59.898Z,62.22
2019-03-08T10:53:36.962Z,62.07
2019-03-08T10:56:16.744Z,62.09
2019-03-08T10:58:50.587Z,62.15
2019-03-08T11:01:34.743Z,62.05
2019-03-08T11:04:02.694Z,61.96
2019-03-08T11:06:30.584Z,62.02
2019-03-08T11:09:00.937Z,62.03
2019-03-08T11:11:34.726Z,62.09
2019-03-08T11:14:17.745Z,62.11
2019-03-08T11:16:45.910Z,62.01
2019-03-08T11:19:28.487Z,62.08
2019-03-08T11:21:59.210Z,62.06
2019-03-08T11:24:35.785Z,62.15
2019-03-08T11:27:20.068Z,62.13
2019-03-08T11:29:47.929Z,61.98
2019-03-08T11:32:22.733Z,62.06
2019-03-08T11:35:02.369Z,62.17
2019-03-08T11:37:30.227Z,62.24
2019-03-08T11:40:00.627Z,62.26
2019-03-08T11:42:30.107Z,62.24
2019-03-08T11:45:00.885Z,62.22
2019-03-08T11:47:28.862Z,62.31
2019-03-08T11:50:12.953Z,62.35
2019-03-08T11:52:57.026Z,62.37
2019-03-08T11:55:39.888Z,62.33
2019-03-08T11:58:13.278Z,62.44
2019-03-08T12:00:44.226Z,62.58
2019-03-08T12:03:28.891Z,62.56
2019-03-08T12:06:13.367Z,62.67
2019-03-08T12:08:46.874Z,62.65
2019-03-08T12:11:31.541Z,62.69
2019-03-08T12:14:11.002Z,62.71
2019-03-08T12:16:47.816Z,62.71
2019-03-08T12:19:30.361Z,62.76
2019-03-08T12:22:01.069Z,62.72
2019-03-08T12:24:40.608Z,62.70
2019-03-08T12:27:17.468Z,62.80
2019-03-08T12:29:45.243Z,62.91
2019-03-08T12:32:15.902Z,63.00
2019-03-08T12:34:58.611Z,63.04
2019-03-08T12:37:29.183Z,63.11
2019-03-08T12:39:56.943Z,63.02
2019-03-08T12:42:27.713Z,63.02
2019-03-08T12:45:12.104Z,63.05
2019-03-08T12:47:42.971Z,63.09
2019-03-08T12:50:19.667Z,62.96
2019-03-08T12:52:59.526Z,62.90
2019-03-08T12:55:33.222Z,62.87
2019-03-08T12:58:01.129Z,63.20
2019-03-08T13:00:47.037Z,63.21
2019-03-08T13:03:20.828Z,63.30
2019-03-08T13:05:48.716Z,63.40
2019-03-08T13:08:16.487Z,63.40
2019-03-08T13:10:42.515Z,63.29
2019-03-08T13:13:08.396Z,63.29
2019-03-08T13:15:34.252Z,63.22
2019-03-08T13:18:00.284Z,63.31
2019-03-08T13:20:26.194Z,63.34
2019-03-08T13:22:52.056Z,63.26
2019-03-08T13:25:18.299Z,63.22
2019-03-08T13:27:44.156Z,63.43
2019-03-08T13:30:11.741Z,63.48
2019-03-08T13:32:37.686Z,63.61
2019-03-08T13:35:05.479Z,63.53
2019-03-08T13:37:31.318Z,63.60
2019-03-08T13:39:57.300Z,63.61
2019-03-08T13:42:23.285Z,63.95
2019-03-08T13:44:49.136Z,63.75
2019-03-08T13:47:15.284Z,63.67
2019-03-08T13:49:41.445Z,63.68
2019-03-08T13:52:07.296Z,63.54
2019-03-08T13:54:33.317Z,63.54
2019-03-08T13:56:59.200Z,63.49
2019-03-08T13:59:25.067Z,63.49
2019-03-08T14:01:51.527Z,63.55
2019-03-08T14:04:17.495Z,63.50
2019-03-08T14:06:43.368Z,63.52
2019-03-08T14:09:09.483Z,63.45
2019-03-08T14:11:35.342Z,63.55
2019-03-08T14:14:01.219Z,63.50
2019-03-08T14:16:27.348Z,63.48
2019-03-08T14:18:53.192Z,63.50
2019-03-08T14:21:19.348Z,63.54
2019-03-08T14:23:45.322Z,63.58
2019-03-08T14:26:11.294Z,63.71
2019-03-08T14:28:37.145Z,63.71
2019-03-08T14:31:14.043Z,63.70
2019-03-08T14:33:39.896Z,63.65
2019-03-08T14:36:06.249Z,63.52
2019-03-08T14:38:36.540Z,63.56
2019-03-08T14:41:16.197Z,63.59
2019-03-08T14:43:48.967Z,63.46
2019-03-08T14:46:25.333Z,63.50
2019-03-08T14:48:51.366Z,63.54
2019-03-08T14:51:17.269Z,63.52
2019-03-08T14:53:43.120Z,63.52
2019-03-08T14:56:09.300Z,63.43
2019-03-08T14:58:36.802Z,63.30
2019-03-08T15:01:06.192Z,63.40
2019-03-08T15:03:30.779Z,63.46
2019-03-08T15:05:56.637Z,63.46
2019-03-08T15:08:22.474Z,63.45
2019-03-08T15:10:51.267Z,63.44
2019-03-08T15:13:16.195Z,63.50
2019-03-08T15:15:42.149Z,63.34
2019-03-08T15:18:08.229Z,63.38
2019-03-08T15:20:34.187Z,63.45
2019-03-08T15:23:00.114Z,63.41
2019-03-08T15:25:26.187Z,63.53
2019-03-08T15:27:52.150Z,63.57
2019-03-08T15:30:18.407Z,63.50
2019-03-08T15:32:45.206Z,63.46
2019-03-08T15:35:12.157Z,63.48
2019-03-08T15:37:44.145Z,63.41
2019-03-08T15:40:10.110Z,63.51
2019-03-08T15:42:36.854Z,63.51
2019-03-08T15:45:05.778Z,63.49
2019-03-08T15:47:35.993Z,63.52
2019-03-08T15:50:00.550Z,63.49
2019-03-08T15:52:26.499Z,63.62
2019-03-08T15:54:52.550Z,63.54
2019-03-08T15:57:18.386Z,63.52
2019-03-08T15:59:44.260Z,63.49
2019-03-08T16:02:10.325Z,63.57
2019-03-08T16:04:38.708Z,63.66
2019-03-08T16:07:04.769Z,63.60
2019-03-08T16:09:30.886Z,63.62
2019-03-08T16:11:56.869Z,63.62
2019-03-08T16:14:22.744Z,63.56
2019-03-08T16:16:48.858Z,63.62
2019-03-08T16:19:14.700Z,63.66
2019-03-08T16:21:40.581Z,63.61
2019-03-08T16:24:06.634Z,63.68
2019-03-08T16:26:32.499Z,63.61
2019-03-08T16:28:58.413Z,63.60
2019-03-08T16:31:26.663Z,63.55
2019-03-08T16:33:54.453Z,63.61
2019-03-08T16:36:22.309Z,63.63
2019-03-08T16:39:06.678Z,63.59
2019-03-08T16:41:37.116Z,63.57
2019-03-08T16:44:17.065Z,63.50
2019-03-08T16:46:47.831Z,63.54
2019-03-08T16:49:18.879Z,63.54
2019-03-08T16:51:54.055Z,63.49
2019-03-08T16:54:30.599Z,63.54
2019-03-08T16:57:15.005Z,63.60
2019-03-08T16:59:42.754Z,63.63
2019-03-08T17:02:10.538Z,63.58
2019-03-08T17:04:47.288Z,63.57
2019-03-08T17:07:26.789Z,63.53
2019-03-08T17:10:00.570Z,63.61
2019-03-08T17:12:28.410Z,63.59
2019-03-08T17:15:22.788Z,63.50
2019-03-08T17:17:59.336Z,63.59
2019-03-08T17:20:33.273Z,63.51
2019-03-08T17:23:17.296Z,63.60
2019-03-08T17:25:51.338Z,63.64
2019-03-08T17:28:25.049Z,63.68
2019-03-08T17:31:07.741Z,63.58
2019-03-08T17:33:38.177Z,63.71
2019-03-08T17:36:17.867Z,63.70
2019-03-08T17:38:48.853Z,63.70
2019-03-08T17:41:24.077Z,63.68
2019-03-08T17:43:57.582Z,63.65
2019-03-08T17:46:31.456Z,63.66
2019-03-08T17:49:01.990Z,63.69
2019-03-08T17:51:29.761Z,63.72
2019-03-08T17:54:15.648Z,63.77
2019-03-08T17:56:59.749Z,63.69
2019-03-08T17:59:36.676Z,63.75
2019-03-08T18:02:07.284Z,63.77
2019-03-08T18:04:35.028Z,63.78
2019-03-08T18:07:03.208Z,63.69
2019-03-08T18:09:30.952Z,63.74
2019-03-08T18:12:02.022Z,63.63
2019-03-08T18:14:32.408Z,63.62
2019-03-08T18:17:06.066Z,63.67
2019-03-08T18:19:50.560Z,63.75
2019-03-08T18:22:18.324Z,63.79
2019-03-08T18:24:58.329Z,63.76
2019-03-08T18:27:37.950Z,63.72
2019-03-08T18:30:13.770Z,63.82
2019-03-08T18:32:47.136Z,63.81
2019-03-08T18:35:23.991Z,63.70
2019-03-08T18:37:51.721Z,63.74
2019-03-08T18:40:19.592Z,63.73
2019-03-08T18:42:47.540Z,63.66
2019-03-08T18:45:31.622Z,63.70
2019-03-08T18:48:14.430Z,63.70
2019-03-08T18:50:44.819Z,63.72
2019-03-08T18:53:12.608Z,63.70
2019-03-08T18:55:52.371Z,63.67
2019-03-08T18:58:32.403Z,63.73
2019-03-08T19:01:15.346Z,63.77
2019-03-08T19:03:45.970Z,63.71
2019-03-08T19:06:22.728Z,63.69
2019-03-08T19:09:06.773Z,63.67
2019-03-08T19:11:37.508Z,63.71
2019-03-08T19:14:11.142Z,63.67
2019-03-08T19:16:39.059Z,63.71
2019-03-08T19:19:06.912Z,63.72
2019-03-08T19:21:46.512Z,63.62
2019-03-08T19:24:26.094Z,63.66
2019-03-08T19:27:12.051Z,63.69
2019-03-08T19:29:58.052Z,63.73
2019-03-08T19:32:26.006Z,63.62
2019-03-08T19:34:53.771Z,63.58
2019-03-08T19:37:21.539Z,63.65
2019-03-08T19:39:55.288Z,63.67
2019-03-08T19:42:25.713Z,63.74
2019-03-08T19:45:05.754Z,63.69
2019-03-08T19:47:33.533Z,63.70
2019-03-08T19:50:16.523Z,63.66
2019-03-08T19:52:46.915Z,63.62
2019-03-08T19:55:14.664Z,63.59
2019-03-08T19:57:57.640Z,63.74
2019-03-08T20:00:28.009Z,63.74
2019-03-08T20:03:13.573Z,63.70
2019-03-08T20:05:43.946Z,63.77
2019-03-08T20:08:26.961Z,63.64
2019-03-08T20:11:06.528Z,63.61
2019-03-08T20:13:34.494Z,63.73
2019-03-08T20:16:18.498Z,63.71
2019-03-08T20:18:49.222Z,63.66
2019-03-08T20:21:19.878Z,63.67
2019-03-08T20:23:47.738Z,63.60
2019-03-08T20:26:32.424Z,63.66
2019-03-08T20:29:08.884Z,63.62
2019-03-08T20:31:36.917Z,63.68
2019-03-08T20:34:04.785Z,63.64
2019-03-08T20:36:32.541Z,63.65
2019-03-08T20:39:17.007Z,63.59
2019-03-08T20:41:53.606Z,63.60
2019-03-08T20:44:39.792Z,63.61
2019-03-08T20:47:07.652Z,63.58
2019-03-08T20:49:33.516Z,63.62
2019-03-08T20:51:59.658Z,63.62
2019-03-08T20:54:25.598Z,63.65
2019-03-08T20:56:51.675Z,63.61
2019-03-08T20:59:17.900Z,63.62
2019-03-08T21:01:43.833Z,63.64
2019-03-08T21:04:09.690Z,63.64
2019-03-08T21:06:35.787Z,63.55
2019-03-08T21:09:01.736Z,63.60
2019-03-08T21:11:27.588Z,63.51
2019-03-08T21:13:53.824Z,63.55
2019-03-08T21:16:19.702Z,63.59
2019-03-08T21:18:45.562Z,63.62
2019-03-08T21:21:11.635Z,63.62
2019-03-08T21:23:37.492Z,63.65
2019-03-08T21:26:03.444Z,63.65
2019-03-08T21:28:29.499Z,63.54
2019-03-08T21:30:57.370Z,63.60
2019-03-08T21:33:23.230Z,63.55
2019-03-08T21:35:49.254Z,63.59
2019-03-08T21:38:15.086Z,63.50
2019-03-08T21:40:40.967Z,63.49
2019-03-08T21:43:07.084Z,63.50
2019-03-08T21:45:33.315Z,63.51
2019-03-08T21:47:59.154Z,63.50
2019-03-08T21:50:25.217Z,63.53
2019-03-08T21:52:51.084Z,63.47
2019-03-08T21:55:16.959Z,63.52
2019-03-08T21:57:43.097Z,63.46
2019-03-08T22:00:16.245Z,63.51
2019-03-08T22:02:42.312Z,63.62
2019-03-08T22:05:08.436Z,63.60
2019-03-08T22:07:34.305Z,63.59
2019-03-08T22:10:04.719Z,63.65
2019-03-08T22:12:30.752Z,63.53
2019-03-08T22:14:56.728Z,63.59
2019-03-08T22:17:23.095Z,63.64
2019-03-08T22:19:49.294Z,63.53
2019-03-08T22:22:15.150Z,63.50
2019-03-08T22:24:41.031Z,63.60
2019-03-08T22:27:07.160Z,63.61
2019-03-08T22:29:33.018Z,63.64
2019-03-08T22:31:58.924Z,63.53
2019-03-08T22:34:25.078Z,63.58
2019-03-08T22:36:50.924Z,63.61
2019-03-08T22:39:16.774Z,63.67
2019-03-08T22:41:42.782Z,63.66
2019-03-08T22:44:08.649Z,63.62
2019-03-08T22:46:34.549Z,63.70
2019-03-08T22:49:00.642Z,63.68
2019-03-08T22:51:26.715Z,63.61
2019-03-08T22:53:52.584Z,63.66
2019-03-08T22:56:18.528Z,63.67
2019-03-08T22:58:44.380Z,63.61
2019-03-08T23:01:12.179Z,63.60
2019-03-08T23:03:38.594Z,63.58
2019-03-08T23:06:04.520Z,63.56
2019-03-08T23:08:30.803Z,63.54
2019-03-08T23:10:56.912Z,63.45
2019-03-08T23:13:22.860Z,63.52
2019-03-08T23:15:48.883Z,63.50
2019-03-08T23:18:15.964Z,63.52
2019-03-08T23:20:41.892Z,63.57
2019-03-08T23:23:07.771Z,63.62
2019-03-08T23:25:33.796Z,63.60
2019-03-08T23:28:04.439Z,63.51
2019-03-08T23:30:30.323Z,63.57
2019-03-08T23:32:56.464Z,63.61
2019-03-08T23:35:22.302Z,63.55
2019-03-08T23:37:48.213Z,63.48
2019-03-08T23:40:14.336Z,63.50
2019-03-08T23:42:40.177Z,63.51
2019-03-08T23:45:07.156Z,63.55
2019-03-08T23:47:33.690Z,63.50
2019-03-08T23:49:59.556Z,63.55
2019-03-08T23:52:25.402Z,63.58
2019-03-08T23:54:51.448Z,63.54
2019-03-08T23:57:17.327Z,63.48
2019-03-08T23:59:43.255Z,63.54
